Villa Atamisqui, Argentina
Current Conditions -  °F | °C
As of 5:00 PM on Sunday 21 Dec 2014 (Local Time) from SANT Reporting Station
Overcast Overcast  
Wind Chill: 68°   Ceiling: 4500
Heat Index: 68°   Visibility: 6mi
Dew Point: 55°   Wind: 7mph
Humidity: 64%   Direction: 180°S
Pressure: 29.85"   Gusts: NA
Location:  28.48°S, 63.8°W
Report Text: SANT 212000Z 18006KT 9999 SCT035 BKN045OVC100 20/13 Q1011
Loading
Personal Weather Stations






























Interactive Weather Map New forecast layout! Learn more

10-Day Weather Forecast

Advertisements
Track Severe Weather on mobile